createdAt,value
2019-06-01T00:01:05.157Z,91.79
2019-06-01T00:04:13.230Z,91.43
2019-06-01T00:07:19.765Z,90.42
2019-06-01T00:10:26.271Z,90.43
2019-06-01T00:13:36.117Z,90.28
2019-06-01T00:16:43.719Z,90.65
2019-06-01T00:19:50.734Z,90.65
2019-06-01T00:22:59.383Z,91.02
2019-06-01T00:26:05.878Z,89.93
2019-06-01T00:29:12.348Z,90.67
2019-06-01T00:32:19.008Z,91.42
2019-06-01T00:35:25.496Z,91.53
2019-06-01T00:38:32.113Z,91.16
2019-06-01T00:41:38.587Z,90.56
2019-06-01T00:44:46.247Z,91.20
2019-06-01T00:47:53.036Z,93.22
2019-06-01T00:51:00.516Z,93.85
2019-06-01T00:54:07.029Z,93.06
2019-06-01T00:57:13.562Z,92.48
2019-06-01T01:00:20.257Z,91.51
2019-06-01T01:03:26.779Z,91.98
2019-06-01T01:06:36.070Z,92.36
2019-06-01T01:09:44.831Z,92.04
2019-06-01T01:13:05.710Z,93.56
2019-06-01T01:16:13.216Z,91.38
2019-06-01T01:19:19.747Z,92.49
2019-06-01T01:22:27.768Z,92.66
2019-06-01T01:25:34.452Z,93.66
2019-06-01T01:28:40.946Z,92.80
2019-06-01T01:31:47.452Z,93.57
2019-06-01T01:34:53.971Z,94.66
2019-06-01T01:38:00.665Z,94.62
2019-06-01T01:41:07.124Z,93.60
2019-06-01T01:44:13.792Z,94.78
2019-06-01T01:47:20.248Z,93.51
2019-06-01T01:50:27.716Z,94.11
2019-06-01T01:53:34.576Z,95.10
2019-06-01T01:56:41.036Z,95.36
2019-06-01T01:59:47.546Z,94.21
2019-06-01T02:02:54.136Z,93.94
2019-06-01T02:06:00.741Z,96.10
2019-06-01T02:09:09.467Z,95.89
2019-06-01T02:12:15.935Z,93.87
2019-06-01T02:15:22.443Z,94.73
2019-06-01T02:18:29.064Z,96.03
2019-06-01T02:21:35.520Z,94.68
2019-06-01T02:24:42.027Z,94.90
2019-06-01T02:27:48.595Z,95.01
2019-06-01T02:30:56.112Z,93.50
2019-06-01T02:34:05.767Z,94.66
2019-06-01T02:37:11.389Z,94.28
2019-06-01T02:40:19.539Z,93.88
2019-06-01T02:43:27.741Z,95.88
2019-06-01T02:46:37.232Z,95.54
2019-06-01T02:49:43.737Z,95.83
2019-06-01T02:52:50.584Z,96.31
2019-06-01T02:55:57.869Z,94.95
2019-06-01T02:59:04.524Z,95.00
2019-06-01T03:02:14.523Z,93.91
2019-06-01T03:05:20.509Z,94.95
2019-06-01T03:08:27.224Z,93.43
2019-06-01T03:11:36.897Z,93.04
2019-06-01T03:14:45.172Z,94.52
2019-06-01T03:17:54.943Z,94.32
2019-06-01T03:21:05.052Z,93.38
2019-06-01T03:24:13.615Z,93.05
2019-06-01T03:27:22.802Z,93.78
2019-06-01T03:30:45.405Z,94.28
2019-06-01T03:33:52.449Z,94.12
2019-06-01T03:37:00.854Z,94.54
2019-06-01T03:40:15.728Z,95.11
2019-06-01T03:43:17.643Z,94.99
2019-06-01T03:46:24.067Z,95.22
2019-06-01T03:49:32.125Z,95.93
2019-06-01T03:52:38.543Z,95.06
2019-06-01T03:55:45.107Z,95.54
2019-06-01T03:58:51.822Z,96.63
2019-06-01T04:01:58.328Z,96.45
2019-06-01T04:05:05.623Z,95.57
2019-06-01T04:08:12.150Z,94.47
2019-06-01T04:11:18.702Z,94.80
2019-06-01T04:14:25.242Z,95.25
2019-06-01T04:17:32.913Z,95.53
2019-06-01T04:20:39.578Z,94.97
2019-06-01T04:23:46.140Z,95.30
2019-06-01T04:26:52.624Z,95.36
2019-06-01T04:29:59.112Z,95.07
2019-06-01T04:33:06.904Z,93.45
2019-06-01T04:36:14.882Z,93.24
2019-06-01T04:39:21.375Z,93.20
2019-06-01T04:42:27.830Z,93.07
2019-06-01T04:45:35.951Z,92.96
2019-06-01T04:48:42.408Z,93.45
2019-06-01T04:51:48.980Z,92.75
2019-06-01T04:54:55.468Z,92.76
2019-06-01T04:58:01.912Z,92.47
2019-06-01T05:01:08.964Z,91.72
2019-06-01T05:04:15.600Z,91.63
2019-06-01T05:07:23.053Z,91.52
2019-06-01T05:10:29.655Z,90.95
2019-06-01T05:13:37.896Z,91.02
2019-06-01T05:16:44.376Z,89.65
2019-06-01T05:19:50.938Z,89.27
2019-06-01T05:22:57.476Z,88.55
2019-06-01T05:26:04.320Z,87.89
2019-06-01T05:29:11.667Z,88.13
2019-06-01T05:32:18.849Z,87.98
2019-06-01T05:35:25.429Z,87.05
2019-06-01T05:38:34.312Z,88.04
2019-06-01T05:41:40.815Z,87.43
2019-06-01T05:44:47.273Z,87.00
2019-06-01T05:47:53.762Z,85.63
2019-06-01T05:51:00.314Z,85.83
2019-06-01T05:54:06.993Z,85.09
2019-06-01T05:57:14.657Z,84.19
2019-06-01T06:00:25.446Z,83.67
2019-06-01T06:03:40.342Z,83.48
2019-06-01T06:06:43.178Z,82.82
2019-06-01T06:09:49.525Z,83.02
2019-06-01T06:12:57.244Z,82.09
2019-06-01T06:16:03.496Z,82.43
2019-06-01T06:19:09.955Z,81.60
2019-06-01T06:22:16.460Z,80.17
2019-06-01T06:25:28.093Z,79.47
2019-06-01T06:28:36.151Z,80.06
2019-06-01T06:31:42.623Z,79.98
2019-06-01T06:34:49.607Z,78.06
2019-06-01T06:37:56.085Z,78.29
2019-06-01T06:41:02.551Z,78.59
2019-06-01T06:44:09.154Z,78.07
2019-06-01T06:47:16.701Z,77.51
2019-06-01T06:50:23.623Z,76.84
2019-06-01T06:53:35.462Z,74.90
2019-06-01T06:56:41.787Z,74.94
2019-06-01T06:59:48.275Z,76.53
2019-06-01T07:02:56.131Z,76.49
2019-06-01T07:06:03.458Z,75.06
2019-06-01T07:09:10.347Z,73.93
2019-06-01T07:12:19.276Z,75.30
2019-06-01T07:15:25.877Z,74.06
2019-06-01T07:18:37.091Z,71.26
2019-06-01T07:21:44.687Z,70.37
2019-06-01T07:24:55.119Z,72.70
2019-06-01T07:28:01.825Z,70.36
2019-06-01T07:31:08.374Z,70.30
2019-06-01T07:34:29.421Z,71.26
2019-06-01T07:37:24.360Z,69.42
2019-06-01T07:40:33.506Z,70.89
2019-06-01T07:43:40.005Z,68.91
2019-06-01T07:46:47.554Z,69.70
2019-06-01T07:49:54.106Z,69.61
2019-06-01T07:53:00.565Z,68.10
2019-06-01T07:56:07.118Z,67.41
2019-06-01T07:59:13.790Z,65.16
2019-06-01T08:02:25.400Z,64.52
2019-06-01T08:05:30.058Z,63.84
2019-06-01T08:08:39.759Z,62.49
2019-06-01T08:11:46.372Z,60.89
2019-06-01T08:14:52.932Z,63.89
2019-06-01T08:17:59.376Z,61.55
2019-06-01T08:21:06.226Z,61.55
2019-06-01T08:24:14.538Z,61.37
2019-06-01T08:27:22.357Z,61.95
2019-06-01T08:30:29.183Z,59.15
2019-06-01T08:33:35.818Z,56.35
2019-06-01T08:36:42.467Z,59.00
2019-06-01T08:39:48.996Z,57.74
2019-06-01T08:42:55.731Z,56.29
2019-06-01T08:46:17.892Z,57.81
2019-06-01T08:49:26.201Z,58.12
2019-06-01T08:52:36.847Z,57.40
2019-06-01T08:55:43.124Z,59.34
2019-06-01T08:58:49.633Z,59.23
2019-06-01T09:01:56.214Z,54.76
2019-06-01T09:05:03.223Z,58.28
2019-06-01T09:08:09.664Z,56.30
2019-06-01T09:11:20.236Z,56.57
2019-06-01T09:14:27.239Z,56.69
2019-06-01T09:17:35.319Z,54.78
2019-06-01T09:20:41.784Z,54.58
2019-06-01T09:23:48.018Z,55.03
2019-06-01T09:26:54.257Z,55.05
2019-06-01T09:30:00.691Z,55.25
2019-06-01T09:33:08.799Z,53.18
2019-06-01T09:36:15.041Z,55.04
2019-06-01T09:39:23.524Z,54.30
2019-06-01T09:42:35.141Z,54.80
2019-06-01T09:45:42.417Z,54.57
2019-06-01T09:48:48.812Z,55.38
2019-06-01T09:51:57.435Z,53.64
2019-06-01T09:55:05.054Z,52.80
2019-06-01T09:58:11.578Z,54.70
2019-06-01T10:01:18.227Z,53.45
2019-06-01T10:04:24.799Z,53.05
2019-06-01T10:07:31.116Z,54.78
2019-06-01T10:10:38.058Z,53.45
2019-06-01T10:13:44.649Z,52.67
2019-06-01T10:16:51.037Z,52.18
2019-06-01T10:20:00.438Z,53.89
2019-06-01T10:23:06.658Z,54.03
2019-06-01T10:26:18.877Z,56.31
2019-06-01T10:29:25.144Z,55.70
2019-06-01T10:32:34.225Z,58.11
2019-06-01T10:35:41.082Z,58.61
2019-06-01T10:38:48.501Z,55.67
2019-06-01T10:41:57.802Z,53.98
2019-06-01T10:45:05.897Z,55.75
2019-06-01T10:51:19.550Z,55.02
2019-06-01T10:54:26.152Z,54.42
2019-06-01T10:57:34.494Z,52.53
2019-06-01T11:00:46.690Z,52.83
2019-06-01T11:03:48.959Z,53.36
2019-06-01T11:06:55.294Z,52.98
2019-06-01T11:10:01.601Z,51.81
2019-06-01T11:13:10.329Z,53.60
2019-06-01T11:16:16.884Z,53.10
2019-06-01T11:19:23.151Z,52.26
2019-06-01T11:22:29.468Z,51.26
2019-06-01T11:25:35.726Z,51.39
2019-06-01T11:28:42.282Z,51.09
2019-06-01T11:31:48.576Z,48.51
2019-06-01T11:34:55.052Z,48.62
2019-06-01T11:38:01.245Z,50.53
2019-06-01T11:41:07.595Z,49.75
2019-06-01T11:44:15.291Z,51.17
2019-06-01T11:47:21.721Z,50.53
2019-06-01T11:50:27.513Z,50.27
2019-06-01T11:53:35.049Z,50.32
2019-06-01T11:56:41.549Z,52.91
2019-06-01T11:59:48.334Z,51.97
2019-06-01T12:02:54.911Z,52.36
2019-06-01T12:06:01.299Z,51.62
2019-06-01T12:09:09.561Z,50.52
2019-06-01T12:12:16.192Z,51.33
2019-06-01T12:15:22.256Z,48.68
2019-06-01T12:18:28.857Z,50.16
2019-06-01T12:21:35.062Z,50.12
2019-06-01T12:24:41.270Z,50.04
2019-06-01T12:27:48.347Z,47.25
2019-06-01T12:30:55.058Z,47.69
2019-06-01T12:34:01.243Z,46.27
2019-06-01T12:37:07.698Z,47.43
2019-06-01T12:40:15.580Z,48.46
2019-06-01T12:43:22.847Z,46.75
2019-06-01T12:46:29.077Z,44.40
2019-06-01T12:49:35.232Z,43.59
2019-06-01T12:52:42.246Z,46.75
2019-06-01T12:55:48.912Z,46.38
2019-06-01T12:58:58.964Z,46.53
2019-06-01T13:02:05.373Z,47.00
2019-06-01T13:05:14.669Z,42.73
2019-06-01T13:08:20.956Z,44.36
2019-06-01T13:11:27.196Z,45.36
2019-06-01T13:14:33.439Z,45.16
2019-06-01T13:17:40.961Z,44.13
2019-06-01T13:20:47.800Z,44.90
2019-06-01T13:23:55.196Z,43.94
2019-06-01T13:27:03.894Z,43.96
2019-06-01T13:30:10.906Z,43.06
2019-06-01T13:33:17.241Z,44.82
2019-06-01T13:36:23.496Z,44.30
2019-06-01T13:39:29.959Z,46.61
2019-06-01T13:42:36.242Z,43.52
2019-06-01T13:45:43.264Z,44.09
2019-06-01T13:48:49.950Z,44.91
2019-06-01T13:51:58.489Z,44.27
2019-06-01T13:55:05.162Z,43.29
2019-06-01T13:58:11.358Z,42.21
2019-06-01T14:01:17.553Z,42.55
2019-06-01T14:04:23.900Z,42.12
2019-06-01T14:07:30.076Z,42.41
2019-06-01T14:10:36.425Z,42.65
2019-06-01T14:13:42.621Z,43.34
2019-06-01T14:16:49.516Z,43.95
2019-06-01T14:19:55.998Z,42.81
2019-06-01T14:23:02.339Z,44.07
2019-06-01T14:26:08.476Z,42.69
2019-06-01T14:29:14.851Z,43.41
2019-06-01T14:32:20.991Z,43.52
2019-06-01T14:35:27.317Z,44.33
2019-06-01T14:38:46.614Z,42.59
2019-06-01T14:41:41.540Z,40.63
2019-06-01T14:44:49.231Z,41.94
2019-06-01T14:47:58.129Z,39.89
2019-06-01T14:51:05.407Z,39.50
2019-06-01T14:54:12.881Z,41.31
2019-06-01T14:57:19.142Z,40.91
2019-06-01T15:00:25.509Z,38.63
2019-06-01T15:03:31.821Z,37.51
2019-06-01T15:06:38.093Z,39.34
2019-06-01T15:09:44.311Z,41.04
2019-06-01T15:12:55.453Z,43.55
2019-06-01T15:15:58.542Z,45.65
2019-06-01T15:19:04.919Z,43.59
2019-06-01T15:22:11.162Z,42.21
2019-06-01T15:25:18.087Z,40.47
2019-06-01T15:28:24.328Z,39.45
2019-06-01T15:31:30.513Z,38.74
2019-06-01T15:34:36.925Z,41.26
2019-06-01T15:37:43.368Z,44.79
2019-06-01T15:40:49.605Z,44.90
2019-06-01T15:43:57.020Z,43.23
2019-06-01T15:47:03.259Z,41.65
2019-06-01T15:50:13.186Z,42.33
2019-06-01T15:53:19.743Z,41.51
2019-06-01T15:56:27.353Z,44.57
2019-06-01T15:59:33.605Z,44.65
2019-06-01T16:02:39.906Z,42.52
2019-06-01T16:05:46.283Z,44.47
2019-06-01T16:08:53.232Z,44.86
2019-06-01T16:12:02.003Z,47.14
2019-06-01T16:15:09.365Z,44.63
2019-06-01T16:18:15.819Z,45.79
2019-06-01T16:21:23.428Z,48.73
2019-06-01T16:24:29.747Z,48.19
2019-06-01T16:27:37.384Z,47.22
2019-06-01T16:30:43.816Z,46.43
2019-06-01T16:33:50.092Z,46.45
2019-06-01T16:37:00.875Z,47.64
2019-06-01T16:40:10.611Z,48.56
2019-06-01T16:43:17.590Z,47.67
2019-06-01T16:46:25.603Z,48.55
2019-06-01T16:49:31.891Z,48.14
2019-06-01T16:52:38.239Z,48.66
2019-06-01T16:55:44.548Z,48.93
2019-06-01T16:58:50.822Z,50.17
2019-06-01T17:02:01.001Z,48.37
2019-06-01T17:05:08.541Z,49.73
2019-06-01T17:08:15.020Z,50.86
2019-06-01T17:11:21.324Z,50.78
2019-06-01T17:14:27.603Z,49.27
2019-06-01T17:17:34.444Z,49.50
2019-06-01T17:20:48.676Z,49.13
2019-06-01T17:23:55.119Z,48.54
2019-06-01T17:27:02.155Z,49.82
2019-06-01T17:30:12.089Z,48.98
2019-06-01T17:33:18.063Z,49.42
2019-06-01T17:36:25.469Z,50.44
2019-06-01T17:39:34.586Z,51.24
2019-06-01T17:42:40.913Z,51.41
2019-06-01T17:45:47.297Z,53.32
2019-06-01T17:48:53.813Z,54.15
2019-06-01T17:52:01.677Z,56.77
2019-06-01T17:55:09.133Z,59.27
2019-06-01T17:58:15.440Z,59.03
2019-06-01T18:01:22.684Z,62.50
2019-06-01T18:04:28.997Z,68.09
2019-06-01T18:07:35.205Z,66.91
2019-06-01T18:10:53.333Z,68.62
2019-06-01T18:13:49.665Z,65.13
2019-06-01T18:16:57.492Z,64.43
2019-06-01T18:20:04.605Z,65.87
2019-06-01T18:23:11.452Z,63.83
2019-06-01T18:26:18.630Z,63.98
2019-06-01T18:29:24.863Z,65.23
2019-06-01T18:32:31.597Z,67.51
2019-06-01T18:35:39.506Z,66.56
2019-06-01T18:38:45.818Z,66.52
2019-06-01T18:41:52.145Z,65.76
2019-06-01T18:44:58.670Z,66.20
2019-06-01T18:48:06.186Z,67.78
2019-06-01T18:51:12.559Z,68.39
2019-06-01T18:54:19.758Z,69.38
2019-06-01T18:57:26.156Z,71.61
2019-06-01T19:00:32.524Z,71.17
2019-06-01T19:03:38.803Z,70.58
2019-06-01T19:06:45.393Z,72.75
2019-06-01T19:09:51.789Z,71.70
2019-06-01T19:12:59.351Z,72.58
2019-06-01T19:16:06.004Z,72.22
2019-06-01T19:19:12.573Z,72.45
2019-06-01T19:22:19.298Z,72.61
2019-06-01T19:25:26.205Z,73.50
2019-06-01T19:28:32.761Z,75.57
2019-06-01T19:31:39.466Z,75.62
2019-06-01T19:34:46.362Z,73.63
2019-06-01T19:37:52.941Z,75.11
2019-06-01T19:40:59.751Z,77.66
2019-06-01T19:44:07.406Z,76.64
2019-06-01T19:47:13.971Z,77.04
2019-06-01T19:50:20.609Z,78.50
2019-06-01T19:53:28.455Z,80.07
2019-06-01T19:56:34.867Z,78.93
2019-06-01T19:59:41.337Z,78.09
2019-06-01T20:02:47.807Z,77.28
2019-06-01T20:05:54.908Z,79.28
2019-06-01T20:09:01.401Z,79.24
2019-06-01T20:12:14.513Z,78.17
2019-06-01T20:15:19.524Z,78.57
2019-06-01T20:18:26.260Z,78.07
2019-06-01T20:21:32.719Z,78.06
2019-06-01T20:24:41.603Z,79.23
2019-06-01T20:27:49.124Z,80.57
2019-06-01T20:30:58.676Z,81.03
2019-06-01T20:34:05.636Z,80.17
2019-06-01T20:37:12.323Z,79.67
2019-06-01T20:40:18.844Z,80.18
2019-06-01T20:43:25.413Z,79.11
2019-06-01T20:46:32.316Z,81.40
2019-06-01T20:49:38.778Z,84.20
2019-06-01T20:52:45.389Z,82.93
2019-06-01T20:55:51.896Z,85.66
2019-06-01T20:58:58.620Z,84.13
2019-06-01T21:02:05.389Z,83.85
2019-06-01T21:05:13.813Z,82.13
2019-06-01T21:08:20.576Z,85.58
2019-06-01T21:11:27.016Z,84.71
2019-06-01T21:14:34.750Z,84.90
2019-06-01T21:17:41.279Z,83.06
2019-06-01T21:20:47.994Z,83.58
2019-06-01T21:23:56.006Z,83.72
2019-06-01T21:27:02.500Z,83.62
2019-06-01T21:30:09.976Z,84.71
2019-06-01T21:33:21.365Z,84.65
2019-06-01T21:36:27.486Z,84.05
2019-06-01T21:39:34.993Z,82.67
2019-06-01T21:42:41.461Z,83.55
2019-06-01T21:45:48.030Z,81.67
2019-06-01T21:48:57.372Z,82.08
2019-06-01T21:52:04.034Z,81.34
2019-06-01T21:55:11.520Z,81.46
2019-06-01T21:58:18.835Z,83.50
2019-06-01T22:01:26.878Z,84.17
2019-06-01T22:04:33.548Z,83.39
2019-06-01T22:07:39.930Z,84.00
2019-06-01T22:10:47.983Z,83.35
2019-06-01T22:13:54.548Z,84.00
2019-06-01T22:17:01.061Z,85.80
2019-06-01T22:20:07.871Z,83.36
2019-06-01T22:23:14.437Z,84.96
2019-06-01T22:26:22.005Z,85.27
2019-06-01T22:29:29.945Z,85.12
2019-06-01T22:32:36.373Z,85.15
2019-06-01T22:35:43.116Z,84.00
2019-06-01T22:38:49.613Z,84.82
2019-06-01T22:42:00.105Z,82.72
2019-06-01T22:45:07.835Z,85.05
2019-06-01T22:48:14.353Z,85.92
2019-06-01T22:51:20.874Z,85.93
2019-06-01T22:54:27.491Z,86.44
2019-06-01T22:57:33.888Z,85.26
2019-06-01T23:00:40.539Z,86.56
2019-06-01T23:03:46.955Z,85.51
2019-06-01T23:06:54.886Z,85.22
2019-06-01T23:10:01.521Z,85.68
2019-06-01T23:13:08.021Z,87.02
2019-06-01T23:16:14.893Z,85.35
2019-06-01T23:19:21.654Z,83.74
2019-06-01T23:22:30.134Z,84.10
2019-06-01T23:25:36.589Z,83.47
2019-06-01T23:28:43.069Z,84.86
2019-06-01T23:31:49.562Z,85.90
2019-06-01T23:34:58.996Z,84.87
2019-06-01T23:38:05.627Z,84.07
2019-06-01T23:41:12.637Z,83.37
2019-06-01T23:44:20.938Z,84.14
2019-06-01T23:47:29.237Z,84.23
2019-06-01T23:50:35.950Z,84.02
2019-06-01T23:53:42.792Z,82.89
2019-06-01T23:56:49.232Z,82.61
2019-06-01T23:59:56.918Z,83.54
